METAR Data
IDs: Format: Raw Decoded Include TAF

Data at: 0821 UTC 20 Sep 2018

KPYM 200752Z AUTO 03013G17KT 10SM SCT014 BKN025 OVC047 17/14 A3011 RMK AO2 SLP194 T01670139
KPYM 200652Z AUTO 04007G15KT 10SM SCT017 BKN022 BKN028 17/13 A3010 RMK AO2 SLP191 T01670133
KPYM 200552Z AUTO 03011G16KT 10SM OVC019 17/13 A3010 RMK AO2 SLP192 T01670133 10167 20161 53007
KPYM 200452Z AUTO 03013G18KT 10SM BKN020 17/13 A3009 RMK AO2 SLP190 T01670133 401940161
KPYM 200352Z AUTO 03012G17KT 10SM BKN019 17/13 A3007 RMK AO2 SLP182 T01670128
KPYM 200324Z AUTO 03012KT 10SM BKN022 BKN032 17/13 A3007 RMK AO2 T01670128
KPYM 200317Z AUTO 04014KT 10SM SCT019 SCT024 BKN032 17/13 A3008 RMK AO2 T01670128
KPYM 200252Z AUTO 04012KT 10SM SCT021 BKN027 OVC033 17/13 A3008 RMK AO2 SLP185 T01670128 53009
KPYM 200211Z AUTO 03013G18KT 10SM BKN025 17/12 A3006 RMK AO2 T01670122
KPYM 200152Z AUTO 03014G25KT 10SM FEW021 16/12 A3007 RMK AO2 PK WND 03027/0112 SLP181 T01610122
KPYM 200131Z AUTO 05010G17KT 10SM SCT021 16/12 A3006 RMK AO2 PK WND 03027/0112 T01610122
KPYM 200052Z AUTO 04009KT 10SM OVC021 17/13 A3006 RMK AO2 SLP178 T01670133
KPYM 192352Z AUTO 05010KT 10SM OVC021 17/13 A3005 RMK AO2 SLP175 60000 T01670128 10183 20161 51024
KPYM 192252Z AUTO 03008KT 10SM BKN017 OVC021 16/13 A3004 RMK AO2 SLP172 T01610133
KPYM 192152Z AUTO 03009KT 10SM OVC015 16/14 A3001 RMK AO2 SLP161 T01610139
KPYM 192145Z AUTO 03010KT 10SM OVC015 17/14 A3000 RMK AO2 T01670139
KPYM 192052Z AUTO 04009G16KT 10SM OVC012 17/14 A2998 RMK AO2 RAB1956E05 SLP151 P0000 60000 T01670144 53007
KPYM 191952Z AUTO 03011KT 10SM BKN010 OVC016 17/15 A2997 RMK AO2 RAB1859E27 CIG 009V013 SLP148 P0000 T01720150
KPYM 191948Z AUTO 04009KT 10SM SCT011 OVC015 17/15 A2997 RMK AO2 RAB1859E27 P0000
KPYM 191939Z AUTO 02010KT 10SM BKN009 OVC015 17/15 A2997 RMK AO2 RAB1859E27 CIG 008V011 P0000 T01720150
KPYM 191852Z AUTO 03011G17KT 10SM OVC013 17/15 A2996 RMK AO2 SLP144 T01720150
KPYM 191752Z AUTO 03012KT 9SM OVC011 18/16 A2996 RMK AO2 RAB38E47 SLP143 P0000 60008 T01830161 10189 20172 50005
KPYM 191652Z AUTO 03012KT 10SM BKN010 OVC015 18/16 A2996 RMK AO2 RAE25 CIG 008V012 SLP144 P0000 T01780161
KPYM 191645Z AUTO 03012KT 10SM BKN010 BKN015 OVC020 18/16 A2996 RMK AO2 RAE25 CIG 008V013 P0000 T01780161
KPYM 191614Z AUTO 03014G18KT 4SM -RA BR BKN006 BKN010 OVC014 17/16 A2995 RMK AO2 P0000 T01720161
KPYM 191602Z AUTO 04013G20KT 2SM -RA BR BKN006 OVC010 17/16 A2995 RMK AO2 P0000 T01720161
KPYM 191552Z AUTO 03012G18KT 1 1/2SM -RA BR BKN005 OVC009 18/17 A2995 RMK AO2 SLP142 P0001 T01780167
KPYM 191452Z AUTO 04012G18KT 1 3/4SM -RA BR OVC006 18/17 A2994 RMK AO2 SLP138 P0001 60007 T01780172 53023
KPYM 191430Z AUTO 02015G21KT 1 1/4SM -RA BR SCT006 OVC011 18/17 A2993 RMK AO2 P0001 T01780167
KPYM 191401Z AUTO 03011KT 1SM -RA BR OVC006 18/17 A2992 RMK AO2 P0000 T01780172
KPYM 191352Z AUTO 04012G19KT 1SM -RA BR BKN004 OVC008 18/17 A2991 RMK AO2 SLP129 P0004 T01780172
KPYM 191252Z AUTO 03013KT 1 1/4SM -RA BR OVC004 18/17 A2989 RMK AO2 SLP121 P0002 T01780172
KPYM 191213Z AUTO 03010KT 1 1/4SM -RA BR OVC004 18/17 A2988 RMK AO2 P0001 T01780172
KPYM 191152Z AUTO 02015G23KT 1 1/4SM -RA BR OVC005 18/17 A2987 RMK AO2 SLP114 P0002 60002 70134 T01780172 10194 20178 53025
KPYM 191124Z AUTO 02010KT 1 1/4SM -RA BR OVC005 19/18 A2986 RMK AO2 P0001 T01890183
KPYM 191059Z AUTO 02013KT 1 1/2SM -RA BR BKN004 OVC009 19/19 A2985 RMK AO2 P0001 T01940189
KPYM 191052Z AUTO 01009KT 2 1/2SM -RA BR BKN005 OVC009 19/19 A2985 RMK AO2 RAB43 CIG 003V006 SLP106 P0000 T01940189
KPYM 190952Z AUTO 03004KT 9SM OVC002 19/19 A2982 RMK AO2 SLP096 T01940189
KPYM 190931Z AUTO 03004KT 3SM BR OVC002 19/19 A2981 RMK AO2 T01940189
KPYM 190919Z AUTO 04003KT 1 1/2SM BR OVC003 19/19 A2980 RMK AO2 T01940194
KPYM 190852Z AUTO 07005KT 1/2SM FG VV002 19/19 A2980 RMK AO2 SLP089 T01940189 53008
KPYM 190839Z AUTO 07004KT 1/4SM FG VV002 19/19 A2979 RMK AO2 T01940189
KPYM 190826Z AUTO 08003KT 1/2SM FG VV002 19/19 A2978 RMK AO2 T01940189
KPYM 190752Z AUTO 00000KT 1/4SM FG VV002 19/19 A2978 RMK AO2 SLP085 T01940189
KPYM 190703Z AUTO 00000KT 1/4SM FG VV002 19/18 A2979 RMK AO2 T01890183
KPYM 190652Z AUTO 00000KT 1/2SM FG VV002 19/18 A2978 RMK AO2 SLP085 T01890183
KPYM 190607Z AUTO 14004KT 1/2SM FG VV002 18/18 A2978 RMK AO2 T01830178
KPYM 190552Z AUTO 00000KT 3/4SM BR VV001 18/18 A2977 RMK AO2 SLP081 T01830178 10200 20183 55002
KPYM 190540Z AUTO 00000KT 1/2SM FG VV001 18/18 A2977 RMK AO2 T01830178
KPYM 190524Z AUTO 00000KT 1/2SM FG VV002 18/18 A2977 RMK AO2 T01830178
KPYM 190514Z AUTO 00000KT 1SM BR VV002 19/18 A2977 RMK AO2 T01890183
KPYM 190452Z AUTO 00000KT 1/2SM FG VV001 19/18 A2976 RMK AO2 SLP078 T01890183 402500189
KPYM 190445Z AUTO 00000KT 1/2SM FG VV001 19/18 A2976 RMK AO2 T01890183
KPYM 190352Z AUTO 00000KT 1/2SM FG VV002 19/19 A2977 RMK AO2 SLP079 T01940189
KPYM 190344Z AUTO 00000KT 1/2SM FG VV002 19/19 A2977 RMK AO2 T01940194
KPYM 190252Z AUTO 00000KT 1/4SM FG VV002 20/19 A2978 RMK AO2 SLP083 T02000194 51010
KPYM 190232Z AUTO 00000KT 1/4SM FG VV002 20/20 A2978 RMK AO2 T02000200
KPYM 190211Z AUTO 00000KT 3/4SM BR VV003 20/19 A2977 RMK AO2 T02000194
KPYM 190152Z AUTO 00000KT 1/4SM FG VV003 20/19 A2977 RMK AO2 SLP081 T02000194
KPYM 190143Z AUTO 00000KT 1/4SM FG VV002 20/19 A2977 RMK AO2 T02000194
KPYM 190132Z AUTO 00000KT 1/2SM FG VV003 20/19 A2977 RMK AO2 T02000194
KPYM 190052Z AUTO 00000KT 1/4SM FG VV002 20/19 A2977 RMK AO2 SLP079 T02000194
KPYM 182352Z AUTO 00000KT 1/4SM FG VV002 20/19 A2975 RMK AO2 SLP073 60120 T02000194 10244 20200 55001
KPYM 182344Z AUTO 01003KT 1/4SM FG VV001 20/19 A2975 RMK AO2 T02000194
KPYM 182335Z AUTO 00000KT 1 1/2SM BR BKN001 21/19 A2974 RMK AO2 T02060194
KPYM 182331Z AUTO 00000KT 7SM SCT003 21/19 A2975 RMK AO2 T02060194
KPYM 182252Z AUTO 00000KT 10SM CLR 21/20 A2974 RMK AO2 SLP070 T02110200
KPYM 182221Z AUTO 00000KT 10SM SCT006 BKN100 21/20 A2975 RMK AO2 T02110200
KPYM 182152Z AUTO 04004KT 10SM OVC005 21/20 A2974 RMK AO2 RAE48 SLP071 P0002 T02110200
KPYM 182052Z AUTO 01007KT 10SM -RA BKN007 OVC016 22/21 A2975 RMK AO2 SLP074 P0005 60118 T02170206 53013
KPYM 182030Z AUTO 35006KT 10SM -RA BKN005 OVC015 22/21 A2976 RMK AO2 LTG DSNT SE AND S P0003 T02170206